createdAt,value
2022-11-17T01:00:37.336Z,20.58
2022-11-17T01:02:23.488Z,19.94
2022-11-17T01:04:09.661Z,19.62
2022-11-17T01:05:55.836Z,19.23
2022-11-17T01:07:42.676Z,19.13
2022-11-17T01:09:28.849Z,18.72
2022-11-17T01:11:15.081Z,18.21
2022-11-17T01:13:01.349Z,17.58
2022-11-17T01:14:47.622Z,19.35
2022-11-17T01:16:33.946Z,19.61
2022-11-17T01:18:20.169Z,18.71
2022-11-17T01:20:06.746Z,18.98
2022-11-17T01:21:53.252Z,19.10
2022-11-17T01:23:39.520Z,19.09
2022-11-17T01:25:25.764Z,17.95
2022-11-17T01:27:12.058Z,17.19
2022-11-17T01:28:58.420Z,17.49
2022-11-17T01:30:44.700Z,16.32
2022-11-17T01:32:31.003Z,15.03
2022-11-17T01:34:17.139Z,15.34
2022-11-17T01:36:03.583Z,14.46
2022-11-17T01:37:49.885Z,13.41
2022-11-17T01:39:36.098Z,12.64
2022-11-17T01:41:22.387Z,12.00
2022-11-17T01:43:09.319Z,11.41
2022-11-17T01:44:55.589Z,10.43
2022-11-17T01:46:41.859Z,11.67
2022-11-17T01:48:28.136Z,11.85
2022-11-17T01:50:14.445Z,11.37
2022-11-17T01:52:00.690Z,10.48
2022-11-17T01:53:46.875Z,10.00
2022-11-17T01:55:33.158Z,9.74
2022-11-17T01:57:19.623Z,9.71
2022-11-17T01:59:06.192Z,10.19
2022-11-17T02:00:52.436Z,10.31
2022-11-17T02:02:38.702Z,10.83
2022-11-17T02:04:25.319Z,11.19
2022-11-17T02:06:11.472Z,11.27
2022-11-17T02:07:58.052Z,11.41
2022-11-17T02:09:44.289Z,11.52
2022-11-17T02:11:30.767Z,11.64
2022-11-17T14:43:34.912Z,21.51
2022-11-17T14:45:21.774Z,21.83
2022-11-17T14:47:08.130Z,22.33
